Time;durP1;ratioP1;P1;durP2;ratioP2;P2;SDS_P1;SDS_P2;PMS_P1;PMS_P2;Temp;Humidity;BMP_temperature;BMP_pressure;BME280_temperature;BME280_humidity;BME280_pressure;Samples;Min_cycle;Max_cycle;Signal;HPM_P1;HPM_P2
2021/03/07 00:01:36;;;;;;;13.90;11.35;;;3.30;50.30;;;;;;4992841;28;20444;-78
2021/03/07 00:04:02;;;;;;;11.80;10.05;;;3.30;50.30;;;;;;5008886;28;20038;-79
2021/03/07 00:06:28;;;;;;;17.77;11.63;;;3.20;50.20;;;;;;4992434;28;20149;-78
2021/03/07 00:08:54;;;;;;;15.00;11.07;;;3.20;50.20;;;;;;4993686;28;20061;-78
2021/03/07 00:11:20;;;;;;;16.48;11.82;;;3.20;50.30;;;;;;5009746;28;20064;-81
2021/03/07 00:13:47;;;;;;;13.77;10.65;;;3.10;50.10;;;;;;5012180;28;20341;-79
2021/03/07 00:16:12;;;;;;;16.35;11.77;;;3.10;50.20;;;;;;5011525;28;20045;-80
2021/03/07 00:18:38;;;;;;;14.10;11.68;;;3.10;50.20;;;;;;5011580;28;20087;-81
2021/03/07 00:21:04;;;;;;;16.65;11.82;;;3.10;50.30;;;;;;5011101;28;20044;-80
2021/03/07 00:23:30;;;;;;;13.90;11.32;;;3.10;50.30;;;;;;5011375;28;20037;-80
2021/03/07 00:25:56;;;;;;;16.50;11.23;;;3.00;50.20;;;;;;5010705;28;20187;-79
2021/03/07 00:28:22;;;;;;;15.95;11.07;;;3.00;50.20;;;;;;5008940;28;20061;-81
2021/03/07 00:30:48;;;;;;;15.70;11.80;;;3.00;50.20;;;;;;4992917;28;20084;-81
2021/03/07 00:33:14;;;;;;;12.80;10.30;;;3.00;50.30;;;;;;4998600;28;20177;-81
2021/03/07 00:35:40;;;;;;;14.57;10.85;;;2.90;50.10;;;;;;5013779;28;20169;-81
2021/03/07 00:38:06;;;;;;;16.10;11.10;;;2.90;50.20;;;;;;5014066;28;20030;-80
2021/03/07 00:40:32;;;;;;;16.05;12.07;;;2.90;50.20;;;;;;4993928;28;20157;-80
2021/03/07 00:42:58;;;;;;;16.15;11.23;;;2.90;50.20;;;;;;4976815;28;20120;-78
2021/03/07 00:45:24;;;;;;;15.13;11.07;;;2.90;50.30;;;;;;5009941;28;20110;-78
2021/03/07 00:47:50;;;;;;;13.52;11.05;;;2.80;50.10;;;;;;5010971;28;20041;-78
2021/03/07 00:50:24;;;;;;;14.52;10.65;;;2.80;50.20;;;;;;5010992;28;20029;-78
2021/03/07 00:52:49;;;;;;;17.60;10.52;;;2.80;50.20;;;;;;5010382;28;20037;-80
2021/03/07 00:55:15;;;;;;;16.63;12.13;;;2.70;50.10;;;;;;5009545;28;20032;-80
2021/03/07 00:57:41;;;;;;;15.25;11.20;;;2.70;50.10;;;;;;5008543;28;20375;-79
2021/03/07 01:00:13;;;;;;;14.70;11.65;;;2.70;50.20;;;;;;5007445;28;20228;-78
2021/03/07 01:02:39;;;;;;;13.70;10.15;;;2.70;50.20;;;;;;5009296;28;20112;-78
2021/03/07 01:05:07;;;;;;;12.80;9.93;;;2.60;50.10;;;;;;5009234;28;20040;-79
2021/03/07 01:07:33;;;;;;;17.08;11.90;;;2.60;50.10;;;;;;5025467;28;20077;-84
2021/03/07 01:10:00;;;;;;;13.98;10.43;;;2.60;50.20;;;;;;5013373;28;20022;-80
2021/03/07 01:12:26;;;;;;;15.00;11.43;;;2.60;50.20;;;;;;5027409;28;20034;-82
2021/03/07 01:14:52;;;;;;;13.63;10.88;;;2.60;50.30;;;;;;5011216;28;20034;-82
2021/03/07 01:17:18;;;;;;;15.38;10.25;;;2.60;50.30;;;;;;5012154;28;20129;-81
2021/03/07 01:19:44;;;;;;;11.68;10.32;;;2.50;50.10;;;;;;5011436;28;20425;-81
2021/03/07 01:22:10;;;;;;;17.65;10.18;;;2.50;50.20;;;;;;5010639;28;20029;-78
2021/03/07 01:24:36;;;;;;;18.23;11.35;;;2.40;50.00;;;;;;5011705;28;20026;-82
2021/03/07 01:27:02;;;;;;;14.98;10.52;;;2.50;50.20;;;;;;5010469;28;20080;-77
2021/03/07 01:29:29;;;;;;;12.35;9.95;;;2.40;50.10;;;;;;5023295;28;20054;-78
2021/03/07 01:31:55;;;;;;;13.25;10.45;;;2.40;50.10;;;;;;5007227;28;20029;-78
2021/03/07 01:34:21;;;;;;;12.98;10.38;;;2.40;50.20;;;;;;5007347;28;20068;-78
2021/03/07 01:36:47;;;;;;;12.77;10.48;;;2.30;50.00;;;;;;5008093;28;20470;-78
2021/03/07 01:39:13;;;;;;;14.13;10.73;;;2.30;50.00;;;;;;5011635;28;20041;-82
2021/03/07 01:41:39;;;;;;;13.55;9.93;;;2.30;50.10;;;;;;5010073;28;20029;-79
2021/03/07 01:44:05;;;;;;;12.20;9.95;;;2.30;50.20;;;;;;5010034;28;20513;-78
2021/03/07 01:46:31;;;;;;;19.73;10.70;;;2.20;50.00;;;;;;5010785;28;20401;-78
2021/03/07 01:48:57;;;;;;;13.25;10.35;;;2.30;50.20;;;;;;5008932;28;20026;-77
2021/03/07 01:51:23;;;;;;;14.35;10.05;;;2.20;50.10;;;;;;5009459;28;20125;-80
2021/03/07 01:53:50;;;;;;;15.57;10.77;;;2.20;50.10;;;;;;5013589;28;20475;-80
2021/03/07 01:56:16;;;;;;;13.20;9.93;;;2.20;50.20;;;;;;5012388;28;20034;-78
2021/03/07 01:58:45;;;;;;;14.20;10.80;;;2.10;50.00;;;;;;5012429;28;20084;-82
2021/03/07 02:01:11;;;;;;;20.20;10.13;;;2.10;50.10;;;;;;5011523;28;20489;-76
2021/03/07 02:03:52;;;;;;;13.30;10.20;;;2.10;50.10;;;;;;5012361;28;20187;-78
2021/03/07 02:06:20;;;;;;;14.52;10.20;;;2.10;50.20;;;;;;5010017;28;20046;-76
2021/03/07 02:08:47;;;;;;;13.27;11.15;;;2.10;50.20;;;;;;5012222;28;20077;-76
2021/03/07 02:11:14;;;;;;;12.32;10.23;;;2.10;50.20;;;;;;5028561;28;20187;-80
2021/03/07 02:13:42;;;;;;;12.80;9.93;;;2.10;50.20;;;;;;5011783;28;20414;-79
2021/03/07 02:16:17;;;;;;;12.38;8.98;;;2.00;50.00;;;;;;5010345;28;20065;-76
2021/03/07 02:18:46;;;;;;;12.73;9.85;;;2.00;50.10;;;;;;5010282;28;20115;-79
2021/03/07 02:21:28;;;;;;;11.50;9.80;;;2.00;50.70;;;;;;5009201;28;20181;-79
2021/03/07 02:24:03;;;;;;;11.70;9.52;;;2.00;50.20;;;;;;5007933;28;20036;-79
2021/03/07 02:26:32;;;;;;;14.95;10.05;;;2.00;50.20;;;;;;5023754;28;20364;-76
2021/03/07 02:28:58;;;;;;;14.82;9.55;;;2.00;50.20;;;;;;5023812;28;20026;-77
2021/03/07 02:31:26;;;;;;;13.63;9.88;;;1.90;50.00;;;;;;5009669;28;20040;-78
2021/03/07 02:34:18;;;;;;;12.98;9.02;;;2.00;50.20;;;;;;5011185;28;20026;-78
2021/03/07 02:36:53;;;;;;;12.48;8.77;;;1.90;50.10;;;;;;4995955;28;20045;-78
2021/03/07 02:39:23;;;;;;;14.20;9.57;;;1.90;50.20;;;;;;5011915;28;20026;-76
2021/03/07 02:41:51;;;;;;;12.65;10.25;;;1.90;50.20;;;;;;5028568;28;20038;-80
2021/03/07 02:44:18;;;;;;;12.43;9.77;;;1.90;50.20;;;;;;5013757;28;20064;-77
2021/03/07 02:46:46;;;;;;;14.75;10.07;;;1.90;50.20;;;;;;4997019;28;20112;-80
2021/03/07 02:49:16;;;;;;;12.05;9.40;;;1.90;50.30;;;;;;4998559;28;20022;-81
2021/03/07 02:51:45;;;;;;;15.15;9.88;;;1.90;50.30;;;;;;5015272;28;20041;-81
2021/03/07 02:54:13;;;;;;;16.02;10.10;;;1.90;50.30;;;;;;5014502;28;20121;-80
2021/03/07 02:56:42;;;;;;;12.82;10.23;;;1.90;50.40;;;;;;5012788;28;20069;-76
2021/03/07 02:59:11;;;;;;;9.57;8.45;;;1.90;50.40;;;;;;4995969;28;20105;-76
2021/03/07 03:01:42;;;;;;;12.60;9.93;;;1.90;50.40;;;;;;5013126;28;20453;-79
2021/03/07 03:04:08;;;;;;;16.77;10.65;;;1.90;50.40;;;;;;5013789;28;20029;-77
2021/03/07 03:06:42;;;;;;;14.32;10.52;;;1.80;50.20;;;;;;5016572;28;20468;-79
2021/03/07 03:09:10;;;;;;;13.82;10.45;;;1.80;50.30;;;;;;5014540;28;20034;-76
2021/03/07 03:11:40;;;;;;;11.50;9.43;;;1.80;50.30;;;;;;5013792;28;20339;-78
2021/03/07 03:14:09;;;;;;;13.65;10.13;;;1.80;50.30;;;;;;5016259;28;20030;-80
2021/03/07 03:16:35;;;;;;;13.65;9.77;;;1.80;50.30;;;;;;5015255;28;20025;-81
2021/03/07 03:19:06;;;;;;;14.38;9.75;;;1.80;50.30;;;;;;5013717;28;20120;-75
2021/03/07 03:21:33;;;;;;;12.52;9.80;;;1.80;50.40;;;;;;5014508;28;20041;-76
2021/03/07 03:23:59;;;;;;;15.40;9.98;;;1.80;51.00;;;;;;5012544;28;20508;-78
2021/03/07 03:26:26;;;;;;;10.65;9.55;;;1.80;50.40;;;;;;5015240;28;20523;-80
2021/03/07 03:28:54;;;;;;;11.23;10.00;;;1.70;50.20;;;;;;5013795;28;20072;-77
2021/03/07 03:31:21;;;;;;;11.90;10.13;;;1.70;50.30;;;;;;5013466;28;20036;-75
2021/03/07 03:33:47;;;;;;;12.05;9.25;;;1.70;50.30;;;;;;5014989;28;20124;-81
2021/03/07 03:36:13;;;;;;;13.77;10.18;;;1.70;50.30;;;;;;5015080;28;20096;-79
2021/03/07 03:38:46;;;;;;;13.07;10.23;;;1.70;50.30;;;;;;5020258;28;20485;-79
2021/03/07 03:41:14;;;;;;;15.77;9.93;;;1.70;50.30;;;;;;5012398;28;20439;-80
2021/03/07 03:43:42;;;;;;;13.05;10.80;;;1.60;50.20;;;;;;5021414;28;20081;-75
2021/03/07 03:46:10;;;;;;;13.73;9.65;;;1.60;50.20;;;;;;5028126;28;20173;-78
2021/03/07 03:48:43;;;;;;;12.88;9.73;;;1.60;50.30;;;;;;5024432;28;20033;-78
2021/03/07 03:51:10;;;;;;;10.75;9.65;;;1.60;50.30;;;;;;5016778;28;20033;-78
2021/03/07 03:53:41;;;;;;;14.35;9.85;;;1.50;50.70;;;;;;5017166;28;20376;-76
2021/03/07 03:56:09;;;;;;;12.95;9.73;;;1.50;50.30;;;;;;5032741;28;20560;-79
2021/03/07 03:58:41;;;;;;;11.80;9.93;;;1.50;50.30;;;;;;5032281;28;20076;-78
2021/03/07 04:01:10;;;;;;;14.98;10.00;;;1.50;50.40;;;;;;5007463;28;20524;-79
2021/03/07 04:03:39;;;;;;;13.35;10.02;;;1.40;50.20;;;;;;5012241;28;20119;-77
2021/03/07 04:06:06;;;;;;;10.98;9.60;;;1.40;50.20;;;;;;4996303;28;20038;-78
2021/03/07 04:08:32;;;;;;;13.85;10.23;;;1.40;50.20;;;;;;5029829;28;20061;-76
2021/03/07 04:10:59;;;;;;;13.48;9.88;;;1.40;50.20;;;;;;5010899;28;20080;-75
2021/03/07 04:13:27;;;;;;;12.55;10.07;;;1.40;50.30;;;;;;5009939;28;20026;-76
2021/03/07 04:15:55;;;;;;;10.02;9.02;;;1.40;50.30;;;;;;5009599;28;20053;-75
2021/03/07 04:18:24;;;;;;;12.93;9.75;;;1.40;50.30;;;;;;5009751;28;20060;-76
2021/03/07 04:20:51;;;;;;;12.57;9.25;;;1.40;50.40;;;;;;5010148;28;20042;-76
2021/03/07 04:23:17;;;;;;;16.00;10.63;;;1.40;50.40;;;;;;5010233;28;20026;-77
2021/03/07 04:25:44;;;;;;;15.70;10.25;;;1.30;50.20;;;;;;5011805;28;20069;-78
2021/03/07 04:28:11;;;;;;;12.57;10.27;;;1.30;50.20;;;;;;5010420;28;20481;-77
2021/03/07 04:30:38;;;;;;;12.80;10.30;;;1.30;50.20;;;;;;5010560;28;20038;-77
2021/03/07 04:33:05;;;;;;;12.77;9.60;;;1.30;50.30;;;;;;5010606;28;20050;-80
2021/03/07 04:35:32;;;;;;;12.52;9.20;;;1.20;50.10;;;;;;5011805;28;20072;-76
2021/03/07 04:38:03;;;;;;;12.43;8.40;;;1.20;50.10;;;;;;5012170;28;20128;-76
2021/03/07 04:40:31;;;;;;;14.20;10.23;;;1.20;50.20;;;;;;5010692;28;20146;-77
2021/03/07 04:42:58;;;;;;;15.70;10.02;;;1.20;50.20;;;;;;5012013;28;20026;-77
2021/03/07 04:45:24;;;;;;;10.10;8.38;;;1.10;50.10;;;;;;5010550;28;20124;-78
2021/03/07 04:47:51;;;;;;;9.90;8.90;;;1.10;50.10;;;;;;5010898;28;20260;-76
2021/03/07 04:50:17;;;;;;;12.70;9.10;;;1.20;50.30;;;;;;5011127;28;20030;-75
2021/03/07 04:52:43;;;;;;;12.05;9.00;;;1.10;50.10;;;;;;5012479;28;20044;-80
2021/03/07 04:55:10;;;;;;;14.25;9.75;;;1.20;50.40;;;;;;5011478;28;20034;-75
2021/03/07 04:57:36;;;;;;;11.45;9.30;;;1.10;50.20;;;;;;5011205;28;20476;-77
2021/03/07 05:00:06;;;;;;;10.32;9.13;;;1.10;50.20;;;;;;5010925;28;20046;-76
2021/03/07 05:02:32;;;;;;;12.63;9.10;;;1.10;50.20;;;;;;5010664;28;20474;-77
2021/03/07 05:04:58;;;;;;;13.23;9.18;;;1.00;50.00;;;;;;5011192;28;20037;-76
2021/03/07 05:07:24;;;;;;;16.23;8.90;;;1.10;50.30;;;;;;5010469;28;20493;-80
2021/03/07 05:09:50;;;;;;;9.80;8.20;;;1.10;50.30;;;;;;5011083;28;20402;-79
2021/03/07 05:12:16;;;;;;;13.57;9.77;;;1.00;50.10;;;;;;5011657;28;20064;-76
2021/03/07 05:14:42;;;;;;;11.98;9.05;;;1.00;50.20;;;;;;5012670;28;20022;-78
2021/03/07 05:17:08;;;;;;;10.82;9.00;;;1.00;50.20;;;;;;5010746;28;20467;-76
2021/03/07 05:19:34;;;;;;;15.80;8.55;;;0.90;50.00;;;;;;5012167;28;20037;-80
2021/03/07 05:21:59;;;;;;;13.15;8.57;;;0.90;50.00;;;;;;5012636;28;20022;-80
2021/03/07 05:24:25;;;;;;;13.00;8.68;;;0.90;50.10;;;;;;5014766;28;20041;-80
2021/03/07 05:26:51;;;;;;;12.00;8.85;;;0.90;50.10;;;;;;5014169;28;20053;-80
2021/03/07 05:29:18;;;;;;;11.18;9.02;;;0.90;50.10;;;;;;5018615;28;20106;-77
2021/03/07 05:31:43;;;;;;;10.88;8.20;;;0.90;50.10;;;;;;5000295;28;20088;-80
2021/03/07 05:34:09;;;;;;;10.40;8.35;;;0.80;50.00;;;;;;5017220;28;20029;-78
2021/03/07 05:36:36;;;;;;;10.23;8.63;;;0.80;50.00;;;;;;5016837;28;20109;-79
2021/03/07 05:39:03;;;;;;;10.93;9.50;;;0.80;50.10;;;;;;5017948;28;20287;-80
2021/03/07 05:41:30;;;;;;;14.38;8.77;;;0.80;50.10;;;;;;5017228;28;20088;-80
2021/03/07 05:43:56;;;;;;;12.60;9.90;;;0.80;50.10;;;;;;5015597;28;20413;-77
2021/03/07 05:46:22;;;;;;;10.40;8.55;;;0.80;50.20;;;;;;5015332;28;20076;-77
2021/03/07 05:48:48;;;;;;;10.50;8.80;;;0.80;50.20;;;;;;5007940;28;20486;-79
2021/03/07 05:51:15;;;;;;;11.10;8.27;;;0.70;50.00;;;;;;5007188;28;20030;-76
2021/03/07 05:53:48;;;;;;;11.32;9.40;;;0.70;50.00;;;;;;4992859;28;20026;-78
2021/03/07 05:56:15;;;;;;;13.07;8.88;;;0.70;50.00;;;;;;4992695;28;20042;-79
2021/03/07 05:58:41;;;;;;;12.45;9.02;;;0.70;50.00;;;;;;5001695;28;20088;-78
2021/03/07 06:01:07;;;;;;;11.55;9.15;;;0.70;50.00;;;;;;5012926;28;20072;-78
2021/03/07 06:03:34;;;;;;;10.15;8.65;;;0.70;50.00;;;;;;5002328;28;20035;-77
2021/03/07 06:06:00;;;;;;;10.90;8.05;;;0.70;50.10;;;;;;4990398;28;20134;-78
2021/03/07 06:08:26;;;;;;;11.60;8.95;;;0.60;49.90;;;;;;4998074;28;20168;-76
2021/03/07 06:10:52;;;;;;;12.05;9.52;;;0.60;50.00;;;;;;5009627;28;20088;-79
2021/03/07 06:13:19;;;;;;;10.70;8.70;;;0.60;50.00;;;;;;5010370;28;20030;-77
2021/03/07 06:15:47;;;;;;;9.25;8.15;;;0.60;50.00;;;;;;5009401;28;20041;-79
2021/03/07 06:18:14;;;;;;;12.35;9.45;;;0.50;49.90;;;;;;5009515;28;20030;-79
2021/03/07 06:20:40;;;;;;;9.77;8.50;;;0.50;49.90;;;;;;5026820;28;20037;-74
2021/03/07 06:23:06;;;;;;;10.30;9.02;;;0.50;49.90;;;;;;5009699;28;20030;-77
2021/03/07 06:25:47;;;;;;;11.50;9.13;;;0.50;49.90;;;;;;5010468;28;20034;-79
2021/03/07 06:28:22;;;;;;;14.43;9.15;;;0.50;50.00;;;;;;5011461;28;20030;-79
2021/03/07 06:30:48;;;;;;;10.70;8.48;;;0.50;50.00;;;;;;5012780;28;20505;-75
2021/03/07 06:33:40;;;;;;;12.00;8.52;;;0.40;49.80;;;;;;5009887;28;20065;-79
2021/03/07 06:36:21;;;;;;;14.75;9.07;;;0.50;50.00;;;;;;5010661;28;20450;-75
2021/03/07 06:38:54;;;;;;;12.13;9.30;;;0.40;49.80;;;;;;5010652;28;20045;-77
2021/03/07 06:41:23;;;;;;;11.55;8.48;;;0.40;49.80;;;;;;5026798;28;20026;-77
2021/03/07 06:43:49;;;;;;;12.05;9.00;;;0.40;49.90;;;;;;4993602;28;20054;-75
2021/03/07 06:46:29;;;;;;;14.70;8.70;;;0.40;49.80;;;;;;5010211;28;20125;-76
2021/03/07 06:48:55;;;;;;;13.57;9.50;;;0.40;49.90;;;;;;5008045;28;20038;-78
2021/03/07 06:51:26;;;;;;;10.95;8.48;;;0.40;49.90;;;;;;5007761;28;20465;-77
2021/03/07 06:53:52;;;;;;;10.82;9.43;;;0.40;49.90;;;;;;4992138;28;20041;-79
2021/03/07 06:56:44;;;;;;;11.65;8.60;;;0.40;49.90;;;;;;5008373;28;20089;-76
2021/03/07 06:59:18;;;;;;;13.35;9.25;;;0.40;50.20;;;;;;5007869;28;20076;-78
2021/03/07 07:01:46;;;;;;;13.13;8.88;;;0.50;50.60;;;;;;5006724;28;20041;-76
2021/03/07 07:04:14;;;;;;;19.52;8.35;;;0.50;50.50;;;;;;5008991;28;20030;-78
2021/03/07 07:06:41;;;;;;;13.45;9.57;;;0.60;50.70;;;;;;4994274;28;20366;-76
2021/03/07 07:09:09;;;;;;;12.23;9.43;;;0.60;50.70;;;;;;4993638;28;20022;-80
2021/03/07 07:11:47;;;;;;;11.25;7.95;;;0.70;50.80;;;;;;5008745;28;20090;-79
2021/03/07 07:14:28;;;;;;;10.23;8.57;;;0.70;50.80;;;;;;5009539;28;20068;-79
2021/03/07 07:16:54;;;;;;;13.93;9.18;;;0.70;50.80;;;;;;5005634;28;20052;-79
2021/03/07 07:19:21;;;;;;;12.55;10.10;;;0.70;50.80;;;;;;5009078;28;20038;-76
2021/03/07 07:21:47;;;;;;;12.57;10.13;;;0.70;50.80;;;;;;5008064;28;20521;-77
2021/03/07 07:24:15;;;;;;;10.80;8.25;;;0.70;50.90;;;;;;5001143;28;20072;-77
2021/03/07 07:26:43;;;;;;;12.65;9.05;;;0.70;50.90;;;;;;4995796;28;20025;-76
2021/03/07 07:29:09;;;;;;;14.57;9.50;;;0.70;51.00;;;;;;5004276;28;20393;-80
2021/03/07 07:31:40;;;;;;;12.30;9.52;;;0.70;51.00;;;;;;4991909;28;20044;-77
2021/03/07 07:34:19;;;;;;;13.00;9.50;;;0.70;51.10;;;;;;5012570;28;20030;-76
2021/03/07 07:36:54;;;;;;;14.15;9.50;;;0.70;51.10;;;;;;4988327;28;20128;-76
2021/03/07 07:39:36;;;;;;;13.00;9.52;;;0.80;51.30;;;;;;5004064;28;20026;-76
2021/03/07 07:42:21;;;;;;;11.70;9.57;;;0.80;51.30;;;;;;5007614;28;20124;-77
2021/03/07 07:44:47;;;;;;;13.05;9.73;;;0.80;51.20;;;;;;5008650;28;20041;-77
2021/03/07 07:47:14;;;;;;;12.18;9.35;;;0.90;51.40;;;;;;5009117;28;20036;-80
2021/03/07 07:49:43;;;;;;;12.85;9.85;;;0.90;51.40;;;;;;5007863;28;20042;-78
2021/03/07 07:52:21;;;;;;;12.48;10.18;;;0.90;51.30;;;;;;5010333;28;20505;-77
2021/03/07 07:55:07;;;;;;;10.48;9.20;;;1.00;51.40;;;;;;5008493;28;20029;-78
2021/03/07 08:00:00;;;;;;;11.75;9.05;;;1.10;51.40;;;;;;5007157;28;20049;-79
2021/03/07 08:02:52;;;;;;;14.70;10.93;;;1.10;51.30;;;;;;5009440;28;20038;-79
2021/03/07 08:05:21;;;;;;;12.95;10.45;;;1.20;51.50;;;;;;5010482;28;20109;-79
2021/03/07 08:08:01;;;;;;;15.98;11.15;;;1.20;51.40;;;;;;5010245;28;20060;-76
2021/03/07 08:10:36;;;;;;;12.85;10.20;;;1.20;51.40;;;;;;5007392;28;20454;-76
2021/03/07 08:13:03;;;;;;;12.40;9.77;;;1.30;51.50;;;;;;5008428;28;20034;-79
2021/03/07 08:15:31;;;;;;;11.52;9.77;;;1.40;51.60;;;;;;4994495;28;20062;-78
2021/03/07 08:17:58;;;;;;;14.00;10.13;;;1.40;51.60;;;;;;5008247;28;20057;-78
2021/03/07 08:20:42;;;;;;;12.73;10.25;;;1.50;51.70;;;;;;5007569;28;20030;-79
2021/03/07 08:23:16;;;;;;;18.90;10.70;;;1.50;51.70;;;;;;5006933;28;20080;-80
2021/03/07 08:25:51;;;;;;;14.20;10.57;;;1.60;51.80;;;;;;4991795;28;20021;-80
2021/03/07 08:28:29;;;;;;;12.93;9.55;;;1.60;51.80;;;;;;5008153;28;20025;-79
2021/03/07 08:31:07;;;;;;;13.77;9.73;;;1.70;52.00;;;;;;5008901;28;20026;-78
2021/03/07 08:33:37;;;;;;;13.35;9.77;;;1.70;51.90;;;;;;5010311;28;20034;-84
2021/03/07 08:36:11;;;;;;;14.50;10.95;;;1.80;52.10;;;;;;5012354;28;20536;-81
2021/03/07 08:38:58;;;;;;;13.48;11.45;;;1.80;52.00;;;;;;5012051;28;20084;-80
2021/03/07 08:41:45;;;;;;;15.02;10.65;;;1.80;51.90;;;;;;5009538;28;20036;-80
2021/03/07 08:44:13;;;;;;;16.67;11.77;;;1.90;52.10;;;;;;4989842;28;20033;-78
2021/03/07 08:46:39;;;;;;;12.07;10.20;;;2.00;52.20;;;;;;5010019;28;20445;-79
2021/03/07 08:49:09;;;;;;;12.40;9.80;;;2.00;52.20;;;;;;5008739;28;20045;-77
2021/03/07 08:51:37;;;;;;;14.50;10.88;;;2.00;52.20;;;;;;5008706;28;20034;-75
2021/03/07 08:54:06;;;;;;;12.48;9.98;;;2.10;52.30;;;;;;5009626;28;20040;-81
2021/03/07 08:56:32;;;;;;;11.98;9.75;;;2.20;52.50;;;;;;5026280;28;20052;-81
2021/03/07 08:58:59;;;;;;;12.95;10.50;;;2.20;52.50;;;;;;4995525;28;20150;-79
2021/03/07 09:01:25;;;;;;;14.45;10.07;;;2.30;52.70;;;;;;4998149;28;20363;-81
2021/03/07 09:03:57;;;;;;;12.48;10.02;;;2.40;52.90;;;;;;5011989;28;20352;-80
2021/03/07 09:06:33;;;;;;;14.55;10.57;;;2.50;53.00;;;;;;5012439;28;20096;-82
2021/03/07 09:09:26;;;;;;;13.15;9.82;;;2.60;53.10;;;;;;4997535;28;20080;-81
2021/03/07 09:12:03;;;;;;;13.73;9.15;;;2.80;53.30;;;;;;5010392;28;20046;-78
2021/03/07 09:14:40;;;;;;;14.23;10.43;;;2.90;53.30;;;;;;4992425;28;20063;-79
2021/03/07 09:17:09;;;;;;;13.43;9.80;;;3.10;53.50;;;;;;4993562;28;20092;-80
2021/03/07 09:19:35;;;;;;;16.58;11.48;;;3.20;53.60;;;;;;5006566;28;20038;-78
2021/03/07 09:22:13;;;;;;;12.68;10.13;;;3.30;53.60;;;;;;4994065;28;20026;-78
2021/03/07 09:25:10;;;;;;;13.52;10.45;;;3.50;53.90;;;;;;5010477;28;20030;-79
2021/03/07 09:27:41;;;;;;;12.05;10.32;;;3.60;53.90;;;;;;5003071;28;20037;-79
2021/03/07 09:30:18;;;;;;;14.50;11.13;;;3.80;54.00;;;;;;5011409;28;20037;-78
2021/03/07 09:32:51;;;;;;;12.27;9.50;;;3.90;54.60;;;;;;4993033;28;20053;-80
2021/03/07 09:35:25;;;;;;;14.27;10.43;;;4.10;54.30;;;;;;5010907;28;20033;-78
2021/03/07 09:38:06;;;;;;;13.98;10.23;;;4.30;54.50;;;;;;5026276;28;20458;-79
2021/03/07 09:40:35;;;;;;;14.65;9.60;;;4.40;54.50;;;;;;5009844;28;20033;-79
2021/03/07 09:43:05;;;;;;;19.13;11.80;;;4.60;54.60;;;;;;4991378;28;20034;-78
2021/03/07 09:45:32;;;;;;;12.95;10.93;;;4.70;54.40;;;;;;4990936;28;20026;-78
2021/03/07 09:47:58;;;;;;;39.42;29.52;;;4.80;54.40;;;;;;5011157;28;20113;-79
2021/03/07 09:50:25;;;;;;;49.78;28.67;;;4.90;54.60;;;;;;5011327;28;20123;-80
2021/03/07 09:52:54;;;;;;;83.20;61.47;;;5.00;55.00;;;;;;5013947;28;20393;-91
2021/03/07 09:55:28;;;;;;;65.10;47.28;;;5.10;55.30;;;;;;4998738;28;20030;-91
2021/03/07 09:58:02;;;;;;;65.28;45.10;;;5.30;56.10;;;;;;5008594;28;20042;-92
2021/03/07 10:00:31;;;;;;;64.07;49.05;;;5.60;56.60;;;;;;5012436;28;20589;-90
2021/03/07 10:02:57;;;;;;;62.10;47.38;;;5.80;56.90;;;;;;4999334;28;20183;-89
2021/03/07 10:05:23;;;;;;;62.92;47.05;;;5.90;57.00;;;;;;5012288;28;20038;-90
2021/03/07 10:07:49;;;;;;;67.15;45.05;;;6.10;57.20;;;;;;5011363;28;20030;-88
2021/03/07 10:10:21;;;;;;;65.57;43.50;;;6.20;57.20;;;;;;5010928;28;20030;-89
2021/03/07 10:13:01;;;;;;;54.83;40.50;;;6.40;57.40;;;;;;5012792;28;20030;-92
2021/03/07 10:15:53;;;;;;;51.45;37.80;;;6.50;57.40;;;;;;4996731;28;20033;-92
2021/03/07 10:18:20;;;;;;;50.08;36.20;;;6.70;57.70;;;;;;5011985;28;20065;-92
2021/03/07 10:20:48;;;;;;;51.50;35.15;;;6.80;57.60;;;;;;4997746;28;20092;-89
2021/03/07 10:23:16;;;;;;;43.13;34.97;;;6.90;57.70;;;;;;5003468;28;20022;-90
2021/03/07 10:25:46;;;;;;;48.63;34.28;;;7.00;57.80;;;;;;5010784;28;20061;-88
2021/03/07 10:28:27;;;;;;;44.28;33.72;;;7.20;58.00;;;;;;5016025;28;20018;-89
2021/03/07 10:30:56;;;;;;;44.63;33.13;;;7.30;57.90;;;;;;5016858;28;20026;-93
2021/03/07 10:33:32;;;;;;;39.22;29.35;;;7.40;57.90;;;;;;5032683;28;20046;-90
2021/03/07 10:36:09;;;;;;;41.58;31.75;;;7.50;57.80;;;;;;5016638;28;20145;-90
2021/03/07 10:38:37;;;;;;;36.90;28.45;;;7.70;58.00;;;;;;5016709;28;20021;-89
2021/03/07 10:41:17;;;;;;;40.92;29.45;;;7.80;57.90;;;;;;5015450;28;20045;-90
2021/03/07 10:43:48;;;;;;;33.25;27.75;;;8.00;58.10;;;;;;5015855;28;20033;-88
2021/03/07 10:46:42;;;;;;;31.38;26.38;;;8.10;58.00;;;;;;5032786;28;20026;-88
2021/03/07 10:49:11;;;;;;;35.97;27.80;;;8.10;57.70;;;;;;5030835;28;20028;-88
2021/03/07 10:51:38;;;;;;;30.98;27.13;;;8.30;58.00;;;;;;5031957;28;20036;-87
2021/03/07 10:54:05;;;;;;;33.20;25.10;;;8.40;58.00;;;;;;5031536;28;20094;-87
2021/03/07 10:56:32;;;;;;;30.90;23.85;;;8.40;57.80;;;;;;5031848;28;20044;-90
2021/03/07 10:58:59;;;;;;;25.55;22.27;;;8.50;57.80;;;;;;5023639;28;20062;-89
2021/03/07 11:01:27;;;;;;;27.02;22.50;;;8.50;57.70;;;;;;5031727;28;20054;-89
2021/03/07 11:03:53;;;;;;;29.73;22.05;;;8.70;57.90;;;;;;5014957;28;20042;-88
2021/03/07 11:06:20;;;;;;;36.13;21.60;;;8.70;57.70;;;;;;5014481;28;20022;-87
2021/03/07 11:08:47;;;;;;;27.50;21.45;;;8.80;57.80;;;;;;5031071;28;20025;-88
2021/03/07 11:11:14;;;;;;;25.48;20.08;;;8.80;57.60;;;;;;5032371;28;20013;-87
2021/03/07 11:13:40;;;;;;;27.98;19.77;;;8.90;57.60;;;;;;5031519;28;20026;-88
2021/03/07 11:16:06;;;;;;;22.70;19.25;;;8.90;57.40;;;;;;5015923;28;20038;-90
2021/03/07 11:18:32;;;;;;;22.30;18.75;;;8.90;57.30;;;;;;5007572;28;20031;-87
2021/03/07 11:20:58;;;;;;;24.42;18.27;;;9.00;57.30;;;;;;5028549;28;20030;-90
2021/03/07 11:23:25;;;;;;;20.63;17.08;;;9.00;57.20;;;;;;5022551;28;20045;-89
2021/03/07 11:25:50;;;;;;;20.48;18.40;;;9.00;57.00;;;;;;5013976;28;20046;-91
2021/03/07 11:28:16;;;;;;;20.30;17.05;;;9.00;56.90;;;;;;5030658;28;20772;-87
2021/03/07 11:30:45;;;;;;;18.70;16.63;;;9.00;56.80;;;;;;5029457;28;20033;-90
2021/03/07 11:33:11;;;;;;;20.42;17.38;;;9.00;56.70;;;;;;5014581;28;20021;-90
2021/03/07 11:35:37;;;;;;;19.85;16.17;;;9.00;56.70;;;;;;4998907;28;20029;-89
2021/03/07 11:38:03;;;;;;;19.83;16.10;;;9.00;56.60;;;;;;5015040;28;20026;-91
2021/03/07 11:40:29;;;;;;;18.65;15.00;;;9.00;56.60;;;;;;5031016;28;20022;-89
2021/03/07 11:42:56;;;;;;;21.60;14.27;;;9.10;56.70;;;;;;5028490;28;20029;-88
2021/03/07 11:45:23;;;;;;;18.60;15.25;;;9.00;56.40;;;;;;5030242;28;20184;-89
2021/03/07 11:47:49;;;;;;;17.17;14.45;;;9.10;56.70;;;;;;5030827;28;20045;-90
2021/03/07 11:50:15;;;;;;;17.60;14.02;;;9.10;56.60;;;;;;5030773;28;20069;-91
2021/03/07 11:52:41;;;;;;;18.45;13.80;;;9.10;56.50;;;;;;5010986;28;20052;-83
2021/03/07 11:55:08;;;;;;;17.40;13.80;;;9.10;56.50;;;;;;5010234;28;20518;-89
2021/03/07 11:57:35;;;;;;;15.07;12.93;;;9.10;56.40;;;;;;4994754;28;20084;-90
2021/03/07 12:00:05;;;;;;;15.10;12.18;;;9.10;56.30;;;;;;4996151;28;20443;-91
2021/03/07 12:02:37;;;;;;;17.05;13.75;;;9.10;56.10;;;;;;5008790;28;20026;-90
2021/03/07 12:05:05;;;;;;;14.95;12.70;;;9.20;56.40;;;;;;5010324;28;20049;-90
2021/03/07 12:07:31;;;;;;;13.05;10.70;;;9.20;56.30;;;;;;5011855;28;20022;-90
2021/03/07 12:09:57;;;;;;;12.25;11.05;;;9.20;56.10;;;;;;5009667;28;20092;-88
2021/03/07 12:12:23;;;;;;;15.30;12.27;;;9.20;55.90;;;;;;4992042;28;20030;-90
2021/03/07 12:14:49;;;;;;;13.68;12.15;;;9.20;55.80;;;;;;4993175;28;20054;-87
2021/03/07 12:17:15;;;;;;;12.90;11.48;;;9.30;55.90;;;;;;4998111;28;20040;-88
2021/03/07 12:19:41;;;;;;;13.68;12.13;;;9.30;55.80;;;;;;5008390;28;20523;-89
2021/03/07 12:22:07;;;;;;;11.80;10.55;;;9.40;55.90;;;;;;4992907;28;20034;-90
2021/03/07 12:24:33;;;;;;;12.77;10.85;;;9.50;56.00;;;;;;4989240;28;20041;-90
2021/03/07 12:27:05;;;;;;;12.35;11.18;;;9.50;55.90;;;;;;4989871;28;20474;-92
2021/03/07 12:29:35;;;;;;;11.80;10.48;;;9.60;55.80;;;;;;4992846;28;20089;-89
2021/03/07 12:32:02;;;;;;;12.60;11.40;;;9.80;55.90;;;;;;4992598;28;20037;-91
2021/03/07 12:34:28;;;;;;;12.05;10.60;;;9.90;55.80;;;;;;5008438;28;20476;-88
2021/03/07 12:36:54;;;;;;;12.07;10.73;;;10.00;55.70;;;;;;4992148;28;20041;-88
2021/03/07 12:39:21;;;;;;;10.40;9.40;;;10.10;55.70;;;;;;5007870;28;20503;-87
2021/03/07 12:41:47;;;;;;;11.15;10.00;;;10.20;55.60;;;;;;4991708;28;20029;-87
2021/03/07 12:44:14;;;;;;;12.98;10.38;;;10.30;55.60;;;;;;5010310;28;20084;-89
2021/03/07 12:46:40;;;;;;;13.05;10.85;;;10.40;55.60;;;;;;4998922;28;20026;-86
2021/03/07 12:49:08;;;;;;;11.90;10.30;;;10.50;55.50;;;;;;5003088;28;20026;-85
2021/03/07 12:51:35;;;;;;;10.98;9.55;;;10.60;55.50;;;;;;4989815;28;20125;-86
2021/03/07 12:54:02;;;;;;;11.70;10.10;;;10.70;55.50;;;;;;4991051;28;20080;-88